createdAt,value
2018-05-26T00:01:09.695Z,13.90
2018-05-26T00:03:35.903Z,13.90
2018-05-26T00:06:02.151Z,13.90
2018-05-26T00:08:28.437Z,13.80
2018-05-26T00:10:55.432Z,13.80
2018-05-26T00:13:22.086Z,13.80
2018-05-26T00:15:49.086Z,13.80
2018-05-26T00:18:16.127Z,13.80
2018-05-26T00:20:43.072Z,13.70
2018-05-26T00:23:09.336Z,13.70
2018-05-26T00:25:35.592Z,13.70
2018-05-26T00:28:01.863Z,13.60
2018-05-26T00:30:28.657Z,13.60
2018-05-26T00:32:55.240Z,13.50
2018-05-26T00:35:21.519Z,13.40
2018-05-26T00:37:48.142Z,13.40
2018-05-26T00:40:14.428Z,13.40
2018-05-26T00:42:40.668Z,13.40
2018-05-26T00:45:06.917Z,13.40
2018-05-26T00:47:33.136Z,13.30
2018-05-26T00:49:59.412Z,13.20
2018-05-26T00:52:26.346Z,13.20
2018-05-26T00:54:53.346Z,13.10
2018-05-26T00:57:20.308Z,13.10
2018-05-26T00:59:47.315Z,13.10
2018-05-26T01:02:13.516Z,13.10
2018-05-26T01:04:39.766Z,13.10
2018-05-26T01:07:06.001Z,13.00
2018-05-26T01:09:32.240Z,12.90
2018-05-26T01:11:58.495Z,12.90
2018-05-26T01:14:24.746Z,12.90
2018-05-26T01:16:51.021Z,12.80
2018-05-26T01:19:17.231Z,12.80
2018-05-26T01:21:43.842Z,12.80
2018-05-26T01:24:10.066Z,12.80
2018-05-26T01:26:36.333Z,12.70
2018-05-26T01:29:02.590Z,12.70
2018-05-26T01:31:29.624Z,12.70
2018-05-26T01:33:55.871Z,12.70
2018-05-26T01:36:22.873Z,12.70
2018-05-26T01:38:49.115Z,12.70
2018-05-26T01:41:15.686Z,12.70
2018-05-26T01:43:41.952Z,12.70
2018-05-26T01:46:08.923Z,12.60
2018-05-26T01:48:35.187Z,12.60
2018-05-26T01:51:01.823Z,12.60
2018-05-26T01:53:28.058Z,12.50
2018-05-26T01:55:55.033Z,12.50
2018-05-26T01:58:21.988Z,12.50
2018-05-26T02:00:48.603Z,12.40
2018-05-26T02:03:15.640Z,12.40
2018-05-26T02:05:41.860Z,12.40
2018-05-26T02:08:08.110Z,12.40
2018-05-26T02:10:34.321Z,12.50
2018-05-26T02:13:01.308Z,12.40
2018-05-26T02:15:28.291Z,12.40
2018-05-26T02:17:56.019Z,12.30
2018-05-26T02:20:22.228Z,12.30
2018-05-26T02:22:49.196Z,12.30
2018-05-26T02:25:15.386Z,12.30
2018-05-26T02:27:41.633Z,12.30
2018-05-26T02:30:07.911Z,12.30
2018-05-26T02:32:34.172Z,12.30
2018-05-26T02:35:00.420Z,12.20
2018-05-26T02:37:26.648Z,12.20
2018-05-26T02:39:52.906Z,12.10
2018-05-26T02:42:19.127Z,12.10
2018-05-26T02:44:45.383Z,12.00
2018-05-26T02:47:11.603Z,12.10
2018-05-26T02:49:48.148Z,12.10
2018-05-26T02:52:14.380Z,12.00
2018-05-26T02:54:40.612Z,12.10
2018-05-26T02:57:06.831Z,12.10
2018-05-26T02:59:33.095Z,12.20
2018-05-26T03:01:59.312Z,12.10
2018-05-26T03:04:31.545Z,12.10
2018-05-26T03:07:04.493Z,12.00
2018-05-26T03:09:36.831Z,12.00
2018-05-26T03:12:09.237Z,12.00
2018-05-26T03:14:41.637Z,11.90
2018-05-26T03:17:07.934Z,11.90
2018-05-26T03:19:34.184Z,11.90
2018-05-26T03:22:00.463Z,11.90
2018-05-26T03:24:26.701Z,11.90
2018-05-26T03:26:53.334Z,11.90
2018-05-26T03:29:19.601Z,11.80
2018-05-26T03:31:46.214Z,11.80
2018-05-26T03:34:12.474Z,11.80
2018-05-26T03:36:39.411Z,11.90
2018-05-26T03:39:05.681Z,11.90
2018-05-26T03:41:31.936Z,12.00
2018-05-26T03:43:58.196Z,12.00
2018-05-26T03:46:24.448Z,12.00
2018-05-26T03:48:50.716Z,12.00
2018-05-26T03:51:16.986Z,12.00
2018-05-26T03:53:43.236Z,12.10
2018-05-26T03:56:21.732Z,12.00
2018-05-26T03:59:00.202Z,12.10
2018-05-26T04:01:27.221Z,12.00
2018-05-26T04:03:53.503Z,12.00
2018-05-26T04:06:19.727Z,12.00
2018-05-26T04:08:46.799Z,11.90
2018-05-26T04:11:13.022Z,11.90
2018-05-26T04:13:40.062Z,12.00
2018-05-26T04:16:07.032Z,12.00
2018-05-26T04:18:34.048Z,12.00
2018-05-26T04:21:00.387Z,11.90
2018-05-26T04:23:26.645Z,12.00
2018-05-26T04:25:53.603Z,12.00
2018-05-26T04:28:20.552Z,12.10
2018-05-26T04:30:47.518Z,12.10
2018-05-26T04:33:13.742Z,12.20
2018-05-26T04:35:40.764Z,12.30
2018-05-26T04:38:07.360Z,12.40
2018-05-26T04:40:33.603Z,12.40
2018-05-26T04:43:00.567Z,12.50
2018-05-26T04:45:26.827Z,12.60
2018-05-26T04:47:53.091Z,12.80
2018-05-26T04:50:20.078Z,12.90
2018-05-26T04:52:46.352Z,13.00
2018-05-26T04:55:12.612Z,13.10
2018-05-26T04:57:39.613Z,13.20
2018-05-26T05:00:06.237Z,13.40
2018-05-26T05:02:32.478Z,13.50
2018-05-26T05:04:58.723Z,13.60
2018-05-26T05:07:25.028Z,13.80
2018-05-26T05:09:52.022Z,14.00
2018-05-26T05:12:18.253Z,14.10
2018-05-26T05:14:44.492Z,14.30
2018-05-26T05:17:10.838Z,14.40
2018-05-26T05:19:37.822Z,14.40
2018-05-26T05:22:04.028Z,14.40
2018-05-26T05:24:30.291Z,14.50
2018-05-26T05:26:56.527Z,14.60
2018-05-26T05:29:22.807Z,14.70
2018-05-26T05:31:49.048Z,14.80
2018-05-26T05:34:15.301Z,14.80
2018-05-26T05:36:41.550Z,14.90
2018-05-26T05:39:08.529Z,14.90
2018-05-26T05:41:34.767Z,15.00
2018-05-26T05:44:03.267Z,15.00
2018-05-26T05:46:30.257Z,15.20
2018-05-26T05:48:56.482Z,15.30
2018-05-26T05:51:22.745Z,15.40
2018-05-26T05:53:48.966Z,15.40
2018-05-26T05:56:15.980Z,15.50
2018-05-26T05:58:42.912Z,15.70
2018-05-26T06:01:09.148Z,15.80
2018-05-26T06:03:35.388Z,15.90
2018-05-26T06:06:02.385Z,16.00
2018-05-26T06:08:29.342Z,16.20
2018-05-26T06:10:55.649Z,16.40
2018-05-26T06:13:22.004Z,16.50
2018-05-26T06:15:48.244Z,16.50
2018-05-26T06:18:14.534Z,16.70
2018-05-26T06:20:40.807Z,16.80
2018-05-26T06:23:07.471Z,16.90
2018-05-26T06:25:34.431Z,17.00
2018-05-26T06:28:00.788Z,17.00
2018-05-26T06:30:27.064Z,17.10
2018-05-26T06:32:53.327Z,17.20
2018-05-26T06:35:19.571Z,17.30
2018-05-26T06:37:45.874Z,17.50
2018-05-26T06:40:12.854Z,17.50
2018-05-26T06:42:39.103Z,17.60
2018-05-26T06:45:05.362Z,17.70
2018-05-26T06:47:31.632Z,17.80
2018-05-26T06:49:57.873Z,17.90
2018-05-26T06:52:24.113Z,18.00
2018-05-26T06:54:50.369Z,18.10
2018-05-26T06:57:16.573Z,18.20
2018-05-26T06:59:43.586Z,18.20
2018-05-26T07:02:09.784Z,18.40
2018-05-26T07:04:36.057Z,18.40
2018-05-26T07:07:02.284Z,18.30
2018-05-26T07:09:29.320Z,18.60
2018-05-26T07:11:55.523Z,18.70
2018-05-26T07:14:22.519Z,18.80
2018-05-26T07:16:58.585Z,18.90
2018-05-26T07:19:24.854Z,18.90
2018-05-26T07:21:51.843Z,19.10
2018-05-26T07:24:18.058Z,19.20
2018-05-26T07:26:44.345Z,19.40
2018-05-26T07:29:10.594Z,19.60
2018-05-26T07:31:36.888Z,19.60
2018-05-26T07:34:03.860Z,19.70
2018-05-26T07:36:30.848Z,19.70
2018-05-26T07:38:57.085Z,19.70
2018-05-26T07:41:24.105Z,19.80
2018-05-26T07:43:50.355Z,19.80
2018-05-26T07:46:16.614Z,19.90
2018-05-26T07:48:43.629Z,19.90
2018-05-26T07:51:09.923Z,20.00
2018-05-26T07:53:36.517Z,20.00
2018-05-26T07:56:02.797Z,20.10
2018-05-26T07:58:29.777Z,20.10
2018-05-26T08:00:56.004Z,20.20
2018-05-26T08:03:22.243Z,20.10
2018-05-26T08:05:48.496Z,20.20
2018-05-26T08:08:14.774Z,20.20
2018-05-26T08:10:41.710Z,20.20
2018-05-26T08:13:07.969Z,20.30
2018-05-26T08:15:35.004Z,20.50
2018-05-26T08:18:01.289Z,20.40
2018-05-26T08:20:27.524Z,20.60
2018-05-26T08:22:53.785Z,20.70
2018-05-26T08:25:20.004Z,21.20
2018-05-26T08:27:46.247Z,20.90
2018-05-26T08:30:12.465Z,21.00
2018-05-26T08:32:39.103Z,21.20
2018-05-26T08:35:05.339Z,21.10
2018-05-26T08:37:31.592Z,21.10
2018-05-26T08:39:57.888Z,21.10
2018-05-26T08:42:24.881Z,21.20
2018-05-26T08:44:51.866Z,21.30
2018-05-26T08:47:18.089Z,21.40
2018-05-26T08:49:44.360Z,21.40
2018-05-26T08:52:11.305Z,21.50
2018-05-26T08:54:37.565Z,21.60
2018-05-26T08:57:03.789Z,21.60
2018-05-26T08:59:30.814Z,21.60
2018-05-26T09:01:57.025Z,21.70
2018-05-26T09:04:23.324Z,21.70
2018-05-26T09:06:50.300Z,21.80
2018-05-26T09:09:16.597Z,21.90
2018-05-26T09:11:43.599Z,22.00
2018-05-26T09:14:09.849Z,22.00
2018-05-26T09:16:36.865Z,22.10
2018-05-26T09:19:03.147Z,22.10
2018-05-26T09:21:29.426Z,22.30
2018-05-26T09:23:56.395Z,22.30
2018-05-26T09:26:23.004Z,22.40
2018-05-26T09:28:50.021Z,22.60
2018-05-26T09:31:17.099Z,22.70
2018-05-26T09:33:43.319Z,22.70
2018-05-26T09:36:09.570Z,22.70
2018-05-26T09:38:36.175Z,22.60
2018-05-26T09:41:02.419Z,22.40
2018-05-26T09:43:28.669Z,22.30
2018-05-26T09:45:54.891Z,22.30
2018-05-26T09:48:21.524Z,22.30
2018-05-26T09:50:48.882Z,22.20
2018-05-26T09:53:15.120Z,22.30
2018-05-26T09:55:41.344Z,22.40
2018-05-26T09:58:07.592Z,22.40
2018-05-26T10:00:33.861Z,22.40
2018-05-26T10:03:00.159Z,22.20
2018-05-26T10:05:26.470Z,22.30
2018-05-26T10:07:52.761Z,22.30
2018-05-26T10:10:18.991Z,22.30
2018-05-26T10:12:45.236Z,22.50
2018-05-26T10:15:11.504Z,22.40
2018-05-26T10:17:38.542Z,22.60
2018-05-26T10:20:04.834Z,22.60
2018-05-26T10:22:31.866Z,23.00
2018-05-26T10:24:58.921Z,23.00
2018-05-26T10:27:25.961Z,23.10
2018-05-26T10:29:52.976Z,23.10
2018-05-26T10:32:19.215Z,23.10
2018-05-26T10:34:45.511Z,23.30
2018-05-26T10:37:11.754Z,23.40
2018-05-26T10:39:38.010Z,23.90
2018-05-26T10:42:04.295Z,24.00
2018-05-26T10:44:31.350Z,24.10
2018-05-26T10:46:58.290Z,24.00
2018-05-26T10:49:25.273Z,24.00
2018-05-26T10:51:51.542Z,24.10
2018-05-26T10:54:17.845Z,24.20
2018-05-26T10:56:44.110Z,24.30
2018-05-26T10:59:10.345Z,24.40
2018-05-26T11:01:36.605Z,24.60
2018-05-26T11:04:02.855Z,24.70
2018-05-26T11:06:42.061Z,24.70
2018-05-26T11:09:08.321Z,24.70
2018-05-26T11:11:35.395Z,24.70
2018-05-26T11:14:02.395Z,24.80
2018-05-26T11:16:28.736Z,24.60
2018-05-26T11:18:55.009Z,24.40
2018-05-26T11:21:22.037Z,24.60
2018-05-26T11:23:48.315Z,24.70
2018-05-26T11:26:15.034Z,24.90
2018-05-26T11:28:41.245Z,24.80
2018-05-26T11:31:07.491Z,24.80
2018-05-26T11:33:34.465Z,24.60
2018-05-26T11:36:01.467Z,24.50
2018-05-26T11:38:27.733Z,24.60
2018-05-26T11:40:54.002Z,24.70
2018-05-26T11:43:21.013Z,24.40
2018-05-26T11:45:47.262Z,24.40
2018-05-26T11:48:13.897Z,24.40
2018-05-26T11:50:40.157Z,24.40
2018-05-26T11:53:07.140Z,24.50
2018-05-26T11:55:33.419Z,24.60
2018-05-26T11:57:59.672Z,24.70
2018-05-26T12:00:26.678Z,24.60
2018-05-26T12:02:52.911Z,24.50
2018-05-26T12:05:19.231Z,24.60
2018-05-26T12:07:45.463Z,24.60
2018-05-26T12:10:11.749Z,24.70
2018-05-26T12:12:38.781Z,24.70
2018-05-26T12:15:05.046Z,25.00
2018-05-26T12:17:32.806Z,25.10
2018-05-26T12:19:59.040Z,25.20
2018-05-26T12:22:25.276Z,25.40
2018-05-26T12:24:52.268Z,25.60
2018-05-26T12:27:19.212Z,25.80
2018-05-26T12:29:46.212Z,25.80
2018-05-26T12:32:12.456Z,25.80
2018-05-26T12:34:38.742Z,25.90
2018-05-26T12:37:05.716Z,26.10
2018-05-26T12:39:31.955Z,25.90
2018-05-26T12:41:58.181Z,25.80
2018-05-26T12:44:24.417Z,25.80
2018-05-26T12:46:51.522Z,26.00
2018-05-26T12:49:17.757Z,25.80
2018-05-26T12:51:44.051Z,25.80
2018-05-26T12:54:10.271Z,26.30
2018-05-26T12:56:37.281Z,27.20
2018-05-26T12:59:03.530Z,27.60
2018-05-26T13:01:29.822Z,28.00
2018-05-26T13:03:57.276Z,28.70
2018-05-26T13:06:23.546Z,29.10
2018-05-26T13:08:49.862Z,28.90
2018-05-26T13:11:16.171Z,28.90
2018-05-26T13:13:42.382Z,28.80
2018-05-26T13:16:09.385Z,29.10
2018-05-26T13:18:35.605Z,29.60
2018-05-26T13:21:01.863Z,30.00
2018-05-26T13:23:28.160Z,30.10
2018-05-26T13:25:55.153Z,28.90
2018-05-26T13:28:21.420Z,28.20
2018-05-26T13:30:47.656Z,27.40
2018-05-26T13:33:13.971Z,26.70
2018-05-26T13:35:40.217Z,26.30
2018-05-26T13:38:06.834Z,25.80
2018-05-26T13:40:33.063Z,25.60
2018-05-26T13:42:59.352Z,25.60
2018-05-26T13:45:25.582Z,25.60
2018-05-26T13:47:51.880Z,25.80
2018-05-26T13:50:18.491Z,27.60
2018-05-26T13:52:45.541Z,28.40
2018-05-26T13:55:12.584Z,28.10
2018-05-26T13:57:38.781Z,28.10
2018-05-26T14:00:05.098Z,27.50
2018-05-26T14:02:31.357Z,26.70
2018-05-26T14:04:57.634Z,25.40
2018-05-26T14:07:24.650Z,25.40
2018-05-26T14:09:50.927Z,25.20
2018-05-26T14:12:17.931Z,25.50
2018-05-26T14:14:44.194Z,25.60
2018-05-26T14:17:11.251Z,25.90
2018-05-26T14:19:38.035Z,26.90
2018-05-26T14:22:04.290Z,27.50
2018-05-26T14:24:30.593Z,27.70
2018-05-26T14:26:57.616Z,27.40
2018-05-26T14:29:23.906Z,26.90
2018-05-26T14:31:50.155Z,26.40
2018-05-26T14:34:16.398Z,26.10
2018-05-26T14:36:42.630Z,26.00
2018-05-26T14:39:08.961Z,25.90
2018-05-26T14:41:35.230Z,25.90
2018-05-26T14:44:01.450Z,25.80
2018-05-26T14:46:27.737Z,25.70
2018-05-26T14:48:54.686Z,25.30
2018-05-26T14:51:21.697Z,24.90
2018-05-26T14:53:47.965Z,24.40
2018-05-26T14:56:14.967Z,24.00
2018-05-26T14:58:41.251Z,23.60
2018-05-26T15:01:08.295Z,23.30
2018-05-26T15:03:34.521Z,23.20
2018-05-26T15:06:00.821Z,22.80
2018-05-26T15:08:27.066Z,22.70
2018-05-26T15:10:53.377Z,22.50
2018-05-26T15:13:20.381Z,22.40
2018-05-26T15:15:46.702Z,22.20
2018-05-26T15:18:12.923Z,22.20
2018-05-26T15:20:39.167Z,22.00
2018-05-26T15:23:05.467Z,22.00
2018-05-26T15:25:32.085Z,21.80
2018-05-26T15:27:58.427Z,21.70
2018-05-26T15:30:24.635Z,21.60
2018-05-26T15:32:50.937Z,21.50
2018-05-26T15:35:17.933Z,21.40
2018-05-26T15:37:45.682Z,21.30
2018-05-26T15:40:11.926Z,21.20
2018-05-26T15:42:38.185Z,21.20
2018-05-26T15:45:04.481Z,21.10
2018-05-26T15:47:30.742Z,21.00
2018-05-26T15:49:57.019Z,20.90
2018-05-26T15:52:23.676Z,20.80
2018-05-26T15:54:49.908Z,20.80
2018-05-26T15:57:16.200Z,20.70
2018-05-26T15:59:42.422Z,20.60
2018-05-26T16:02:08.698Z,20.60
2018-05-26T16:04:35.697Z,20.60
2018-05-26T16:07:01.969Z,20.50
2018-05-26T16:09:28.227Z,20.60
2018-05-26T16:11:55.278Z,20.50
2018-05-26T16:14:22.248Z,20.50
2018-05-26T16:16:48.495Z,20.40
2018-05-26T16:19:14.762Z,20.40
2018-05-26T16:21:41.027Z,20.40
2018-05-26T16:24:07.288Z,20.40
2018-05-26T16:26:33.561Z,20.30
2018-05-26T16:28:59.803Z,20.30
2018-05-26T16:31:26.081Z,20.30
2018-05-26T16:33:53.080Z,20.30
2018-05-26T16:36:19.349Z,20.20
2018-05-26T16:38:45.633Z,20.30
2018-05-26T16:41:12.593Z,20.30
2018-05-26T16:43:38.881Z,20.20
2018-05-26T16:46:05.151Z,20.20
2018-05-26T16:48:31.428Z,20.20
2018-05-26T16:53:25.764Z,20.20
2018-05-26T16:55:51.987Z,20.20
2018-05-26T16:58:18.224Z,20.20
2018-05-26T17:00:44.499Z,20.20
2018-05-26T17:03:10.744Z,20.30
2018-05-26T17:05:37.052Z,20.30
2018-05-26T17:08:04.119Z,20.40
2018-05-26T17:10:31.097Z,20.50
2018-05-26T17:12:57.381Z,20.60
2018-05-26T17:15:24.412Z,20.70
2018-05-26T17:17:50.664Z,20.80
2018-05-26T17:20:16.964Z,20.90
2018-05-26T17:22:43.213Z,20.90
2018-05-26T17:25:09.571Z,21.00
2018-05-26T17:27:35.850Z,21.00
2018-05-26T17:30:02.159Z,21.10
2018-05-26T17:32:28.421Z,21.00
2018-05-26T17:34:54.686Z,21.00
2018-05-26T17:37:20.948Z,20.90
2018-05-26T17:39:47.217Z,20.90
2018-05-26T17:42:14.228Z,20.80
2018-05-26T17:44:40.886Z,20.70
2018-05-26T17:47:07.872Z,20.60
2018-05-26T17:49:34.884Z,20.50
2018-05-26T17:52:01.152Z,20.40
2018-05-26T17:54:28.252Z,20.40
2018-05-26T17:56:54.528Z,20.30
2018-05-26T17:59:20.772Z,20.20
2018-05-26T18:01:47.767Z,20.00
2018-05-26T18:04:14.033Z,20.00
2018-05-26T18:06:40.282Z,19.90
2018-05-26T18:09:06.897Z,19.90
2018-05-26T18:11:33.178Z,19.90
2018-05-26T18:13:59.792Z,19.90
2018-05-26T18:16:26.049Z,19.90
2018-05-26T18:18:52.300Z,19.90
2018-05-26T18:21:19.293Z,19.80
2018-05-26T18:23:45.538Z,19.70
2018-05-26T18:26:12.543Z,19.70
2018-05-26T18:28:39.593Z,19.60
2018-05-26T18:31:06.613Z,19.50
2018-05-26T18:33:32.948Z,19.50
2018-05-26T18:35:59.215Z,19.40
2018-05-26T18:38:25.456Z,19.40
2018-05-26T18:40:52.515Z,19.30
2018-05-26T18:43:19.527Z,19.20
2018-05-26T18:45:46.528Z,19.10
2018-05-26T18:48:13.503Z,19.00
2018-05-26T18:50:40.514Z,18.90
2018-05-26T18:53:06.795Z,18.80
2018-05-26T18:55:33.073Z,18.70
2018-05-26T18:57:59.305Z,18.60
2018-05-26T19:00:25.595Z,18.50
2018-05-26T19:02:51.832Z,18.40
2018-05-26T19:05:18.147Z,18.30
2018-05-26T19:07:45.180Z,18.20
2018-05-26T19:10:11.452Z,18.10
2018-05-26T19:12:38.122Z,18.00
2018-05-26T19:15:04.400Z,17.90
2018-05-26T19:17:30.683Z,17.70
2018-05-26T19:19:56.949Z,17.60
2018-05-26T19:22:23.903Z,17.50
2018-05-26T19:24:50.925Z,17.40
2018-05-26T19:27:17.153Z,17.40
2018-05-26T19:29:43.388Z,17.30
2018-05-26T19:32:09.657Z,17.20
2018-05-26T19:34:35.898Z,17.20
2018-05-26T19:37:02.940Z,17.10
2018-05-26T19:39:29.157Z,17.60
2018-05-26T19:41:55.437Z,16.90
2018-05-26T19:44:21.698Z,16.90
2018-05-26T19:46:48.699Z,16.80
2018-05-26T19:49:14.978Z,16.80
2018-05-26T19:51:41.977Z,16.70
2018-05-26T19:54:08.250Z,16.60
2018-05-26T19:56:34.585Z,16.60
2018-05-26T19:59:00.840Z,16.50
2018-05-26T20:01:27.819Z,16.50
2018-05-26T20:03:54.083Z,16.40
2018-05-26T20:06:20.328Z,16.40
2018-05-26T20:08:46.565Z,16.30
2018-05-26T20:11:12.807Z,16.40
2018-05-26T20:13:39.083Z,16.30
2018-05-26T20:16:06.058Z,16.30
2018-05-26T20:18:32.393Z,16.20
2018-05-26T20:20:58.655Z,16.20
2018-05-26T20:23:25.659Z,16.10
2018-05-26T20:25:52.656Z,16.10
2018-05-26T20:28:18.889Z,16.00
2018-05-26T20:30:45.166Z,16.00
2018-05-26T20:33:12.200Z,15.90
2018-05-26T20:35:38.425Z,15.80
2018-05-26T20:38:04.716Z,15.80
2018-05-26T20:40:31.005Z,15.70
2018-05-26T20:42:57.212Z,15.60
2018-05-26T20:45:23.498Z,15.60
2018-05-26T20:47:50.081Z,15.70
2018-05-26T20:50:16.334Z,16.00
2018-05-26T20:52:42.569Z,15.60
2018-05-26T20:55:08.844Z,15.50
2018-05-26T20:57:35.468Z,15.50
2018-05-26T21:00:01.745Z,15.50
2018-05-26T21:02:28.741Z,15.40
2018-05-26T21:04:54.972Z,15.50
2018-05-26T21:07:21.274Z,15.50
2018-05-26T21:09:48.229Z,15.60
2018-05-26T21:12:15.262Z,15.70
2018-05-26T21:14:41.515Z,15.80
2018-05-26T21:17:08.535Z,15.80
2018-05-26T21:19:34.741Z,15.70
2018-05-26T21:22:00.985Z,15.70
2018-05-26T21:24:27.240Z,15.70
2018-05-26T21:26:53.550Z,15.60
2018-05-26T21:29:19.820Z,15.50
2018-05-26T21:31:46.089Z,15.40
2018-05-26T21:34:12.380Z,15.40
2018-05-26T21:36:38.654Z,15.20
2018-05-26T21:39:04.971Z,15.10
2018-05-26T21:41:31.178Z,15.00
2018-05-26T21:43:57.424Z,14.90
2018-05-26T21:46:23.665Z,14.90
2018-05-26T21:48:49.940Z,15.00
2018-05-26T21:51:16.985Z,15.10
2018-05-26T21:53:44.035Z,15.00
2018-05-26T21:56:11.000Z,15.00
2018-05-26T21:58:37.263Z,14.90
2018-05-26T22:01:03.533Z,14.90
2018-05-26T22:03:29.819Z,14.90
2018-05-26T22:05:56.064Z,15.00
2018-05-26T22:08:22.294Z,15.00
2018-05-26T22:10:48.586Z,14.90
2018-05-26T22:13:15.245Z,14.90
2018-05-26T22:15:42.221Z,14.80
2018-05-26T22:18:08.478Z,14.70
2018-05-26T22:20:34.759Z,14.70
2018-05-26T22:23:00.989Z,14.60
2018-05-26T22:25:27.285Z,14.40
2018-05-26T22:27:53.520Z,14.40
2018-05-26T22:30:19.787Z,14.40
2018-05-26T22:32:46.052Z,14.30
2018-05-26T22:35:13.070Z,14.20
2018-05-26T22:37:39.313Z,14.20
2018-05-26T22:40:05.599Z,14.70
2018-05-26T22:42:31.821Z,14.10
2018-05-26T22:44:58.890Z,14.10
2018-05-26T22:47:25.114Z,14.10
2018-05-26T22:49:51.384Z,14.00
2018-05-26T22:52:17.673Z,14.00
2018-05-26T22:54:44.625Z,14.00
2018-05-26T22:57:11.611Z,14.00
2018-05-26T22:59:37.842Z,14.10
2018-05-26T23:02:04.329Z,14.10
2018-05-26T23:04:30.547Z,14.10
2018-05-26T23:06:56.869Z,14.10
2018-05-26T23:09:23.790Z,14.20
2018-05-26T23:11:50.090Z,14.10
2018-05-26T23:14:24.750Z,14.10
2018-05-26T23:16:51.783Z,14.10
2018-05-26T23:19:18.044Z,14.10
2018-05-26T23:21:44.360Z,14.10
2018-05-26T23:24:10.601Z,14.00
2018-05-26T23:26:37.642Z,14.00
2018-05-26T23:29:03.925Z,14.00
2018-05-26T23:31:30.886Z,13.90
2018-05-26T23:33:57.163Z,13.90
2018-05-26T23:36:24.864Z,13.90
2018-05-26T23:38:51.105Z,13.90
2018-05-26T23:41:17.324Z,13.90
2018-05-26T23:43:44.315Z,13.80
2018-05-26T23:46:10.540Z,13.80
2018-05-26T23:48:36.834Z,13.80
2018-05-26T23:51:03.050Z,13.80
2018-05-26T23:53:29.320Z,13.80
2018-05-26T23:55:56.357Z,13.80
2018-05-26T23:58:22.599Z,13.80
